Time;durP1;ratioP1;P1;durP2;ratioP2;P2;SDS_P1;SDS_P2;PMS_P1;PMS_P2;Temp;Humidity;BMP_temperature;BMP_pressure;BME280_temperature;BME280_humidity;BME280_pressure;Samples;Min_cycle;Max_cycle;Signal;HPM_P1;HPM_P2
2022/04/16 00:00:52;;;;;;;15.02;4.97;;;3.80;99.90;;;;;;4989014;28;20477;-64
2022/04/16 00:03:17;;;;;;;11.57;5.80;;;3.80;99.90;;;;;;4989116;28;20034;-64
2022/04/16 00:05:44;;;;;;;18.15;5.38;;;3.70;99.90;;;;;;4988486;28;20019;-64
2022/04/16 00:08:10;;;;;;;11.35;4.55;;;3.80;99.90;;;;;;4987880;28;20599;-63
2022/04/16 00:10:37;;;;;;;11.80;4.68;;;3.70;99.90;;;;;;4987881;28;20430;-64
2022/04/16 00:13:04;;;;;;;12.45;5.43;;;3.80;99.90;;;;;;4986516;28;20470;-64
2022/04/16 00:15:29;;;;;;;10.15;4.88;;;3.80;99.90;;;;;;4988281;28;20385;-64
2022/04/16 00:17:56;;;;;;;13.80;5.32;;;3.80;99.90;;;;;;4983912;28;20158;-64
2022/04/16 00:20:25;;;;;;;13.48;4.68;;;3.60;99.90;;;;;;4987048;28;20127;-64
2022/04/16 00:22:51;;;;;;;12.70;5.50;;;3.60;99.90;;;;;;4984691;28;20018;-64
2022/04/16 00:25:17;;;;;;;13.15;5.15;;;3.50;99.90;;;;;;5003572;28;20432;-64
2022/04/16 00:27:42;;;;;;;11.55;5.53;;;3.40;99.90;;;;;;4982952;28;20093;-64
2022/04/16 00:30:08;;;;;;;18.75;4.72;;;3.40;99.90;;;;;;5002249;28;20042;-64
2022/04/16 00:32:34;;;;;;;17.58;4.90;;;3.30;99.90;;;;;;4992478;28;20026;-64
2022/04/16 00:35:02;;;;;;;13.75;5.40;;;3.30;99.90;;;;;;4987662;28;20037;-64
2022/04/16 00:37:27;;;;;;;12.77;4.90;;;3.30;99.90;;;;;;4986839;28;20026;-64
2022/04/16 00:39:53;;;;;;;10.25;4.50;;;3.20;99.90;;;;;;4987973;28;20033;-64
2022/04/16 00:42:19;;;;;;;11.18;5.28;;;3.20;99.90;;;;;;4988206;28;20026;-63
2022/04/16 00:44:44;;;;;;;12.90;5.13;;;3.10;99.90;;;;;;4983848;28;20030;-63
2022/04/16 00:47:12;;;;;;;14.65;4.95;;;3.10;99.90;;;;;;4987493;28;20100;-63
2022/04/16 00:49:37;;;;;;;10.13;4.03;;;3.10;99.90;;;;;;4987997;28;20014;-64
2022/04/16 00:52:04;;;;;;;20.35;6.28;;;3.10;99.90;;;;;;4987884;28;20390;-64
2022/04/16 00:54:30;;;;;;;10.98;5.18;;;3.00;99.90;;;;;;4987306;28;20076;-64
2022/04/16 00:56:56;;;;;;;13.80;4.97;;;3.00;99.90;;;;;;4985230;28;20034;-64
2022/04/16 00:59:22;;;;;;;9.98;4.70;;;2.90;99.90;;;;;;4987805;28;20544;-64
2022/04/16 01:01:47;;;;;;;12.48;4.90;;;3.00;99.90;;;;;;4987880;28;20042;-63
2022/04/16 01:04:13;;;;;;;11.45;4.88;;;3.00;99.90;;;;;;5002086;28;20030;-64
2022/04/16 01:06:40;;;;;;;11.90;5.18;;;3.00;99.90;;;;;;4991403;28;20026;-64
2022/04/16 01:09:06;;;;;;;11.27;5.38;;;3.10;99.90;;;;;;4988338;28;20514;-64
2022/04/16 01:11:32;;;;;;;14.27;5.70;;;3.20;99.90;;;;;;4992116;28;20030;-64
2022/04/16 01:14:01;;;;;;;20.17;6.45;;;3.30;99.90;;;;;;4990411;28;20061;-64
2022/04/16 01:16:31;;;;;;;13.23;5.40;;;3.30;99.90;;;;;;4993782;28;20371;-64
2022/04/16 01:18:57;;;;;;;15.82;6.18;;;3.30;99.90;;;;;;4989567;28;20038;-64
2022/04/16 01:21:23;;;;;;;12.02;4.55;;;3.40;99.90;;;;;;4993704;28;20027;-64
2022/04/16 01:23:49;;;;;;;13.60;5.70;;;3.30;99.90;;;;;;4996103;28;20022;-64
2022/04/16 01:26:15;;;;;;;15.68;5.20;;;3.40;99.90;;;;;;4991280;28;20034;-64
2022/04/16 01:28:41;;;;;;;13.55;5.88;;;3.40;99.90;;;;;;4992986;28;20487;-64
2022/04/16 01:31:07;;;;;;;12.93;5.60;;;3.40;99.90;;;;;;4993038;28;20054;-64
2022/04/16 01:33:32;;;;;;;21.73;6.63;;;3.50;99.90;;;;;;4986276;28;20018;-64
2022/04/16 01:35:58;;;;;;;18.77;6.57;;;3.60;99.90;;;;;;4993851;28;20482;-63
2022/04/16 01:38:25;;;;;;;12.05;5.60;;;3.60;99.90;;;;;;4993437;28;20023;-63
2022/04/16 01:40:57;;;;;;;15.43;6.80;;;3.60;99.90;;;;;;4987355;28;20125;-63
2022/04/16 01:43:23;;;;;;;17.95;6.50;;;3.60;99.90;;;;;;4994047;28;20026;-63
2022/04/16 01:45:49;;;;;;;14.48;5.97;;;3.50;99.90;;;;;;4989664;28;20089;-63
2022/04/16 01:48:19;;;;;;;12.55;5.90;;;3.50;99.90;;;;;;4993508;28;20057;-63
2022/04/16 01:50:51;;;;;;;11.40;4.95;;;3.40;99.90;;;;;;4988305;28;20533;-63
2022/04/16 01:53:17;;;;;;;15.48;6.85;;;3.40;99.90;;;;;;4993541;28;20022;-63
2022/04/16 01:55:42;;;;;;;14.05;6.68;;;3.30;99.90;;;;;;4992018;28;20041;-63
2022/04/16 01:58:08;;;;;;;13.93;5.78;;;3.30;99.90;;;;;;4991672;28;20097;-64
2022/04/16 02:00:35;;;;;;;15.90;5.78;;;3.30;99.90;;;;;;4990201;28;20418;-63
2022/04/16 02:03:01;;;;;;;19.50;5.82;;;3.30;99.90;;;;;;4993287;28;20449;-63
2022/04/16 02:05:27;;;;;;;13.70;6.47;;;3.10;99.90;;;;;;4985882;28;20121;-64
2022/04/16 02:07:54;;;;;;;12.13;5.13;;;3.10;99.90;;;;;;4989735;28;20486;-64
2022/04/16 02:10:19;;;;;;;10.30;4.68;;;3.20;99.90;;;;;;4990357;28;20022;-64
2022/04/16 02:12:45;;;;;;;10.82;5.22;;;3.40;99.90;;;;;;4993491;28;20049;-64
2022/04/16 02:15:11;;;;;;;13.18;4.80;;;3.50;99.90;;;;;;4991901;28;20474;-64
2022/04/16 02:17:38;;;;;;;15.48;5.28;;;3.60;99.90;;;;;;4992281;28;20157;-64
2022/04/16 02:20:06;;;;;;;11.88;6.78;;;3.80;99.90;;;;;;4992604;28;20025;-64
2022/04/16 02:22:46;;;;;;;17.13;6.35;;;4.00;99.90;;;;;;4991605;28;20026;-64
2022/04/16 02:25:13;;;;;;;15.05;5.60;;;4.20;99.90;;;;;;4986783;28;20394;-64
2022/04/16 02:27:39;;;;;;;13.75;6.22;;;4.20;99.90;;;;;;4991384;28;20498;-64
2022/04/16 02:30:10;;;;;;;14.95;5.40;;;4.40;99.90;;;;;;4992601;28;20082;-64
2022/04/16 02:32:38;;;;;;;13.70;5.97;;;4.40;99.90;;;;;;4993395;28;20046;-64
2022/04/16 02:35:05;;;;;;;15.30;6.47;;;4.50;99.90;;;;;;4989714;28;20028;-64
2022/04/16 02:37:31;;;;;;;13.43;6.28;;;4.60;99.90;;;;;;4991066;28;20064;-64
2022/04/16 02:39:56;;;;;;;12.38;5.03;;;4.60;99.90;;;;;;4987932;28;20414;-64
2022/04/16 02:42:22;;;;;;;17.02;5.57;;;4.40;99.90;;;;;;4986976;28;20038;-64
2022/04/16 02:47:31;;;;;;;20.73;6.97;;;4.40;99.90;;;;;;4990142;28;20101;-64
2022/04/16 02:49:57;;;;;;;11.88;4.80;;;4.20;99.90;;;;;;4988631;28;20018;-64
2022/04/16 02:52:23;;;;;;;12.77;6.00;;;4.10;99.90;;;;;;4992223;28;20026;-64
2022/04/16 02:54:48;;;;;;;13.85;6.05;;;4.00;99.90;;;;;;5004217;28;20030;-64
2022/04/16 02:57:14;;;;;;;19.77;6.05;;;3.80;99.90;;;;;;4990533;28;20030;-64
2022/04/16 02:59:40;;;;;;;12.07;5.00;;;3.80;99.90;;;;;;4989244;28;20057;-64
2022/04/16 03:02:06;;;;;;;15.68;6.57;;;3.80;99.90;;;;;;4992140;28;20093;-64
2022/04/16 03:04:32;;;;;;;12.65;5.40;;;3.60;99.90;;;;;;4992552;28;20034;-64
2022/04/16 03:06:58;;;;;;;13.02;5.88;;;3.50;99.90;;;;;;4991907;28;20053;-64
2022/04/16 03:09:23;;;;;;;16.80;5.65;;;3.30;99.90;;;;;;4985619;28;20078;-64
2022/04/16 03:11:49;;;;;;;17.40;7.72;;;3.40;99.90;;;;;;4987712;28;20033;-64
2022/04/16 03:19:45;;;;;;;14.60;5.20;;;3.50;99.90;;;;;;4990911;28;20036;-64
2022/04/16 03:22:12;;;;;;;20.63;6.20;;;3.60;99.90;;;;;;4990967;28;20474;-64
2022/04/16 03:24:37;;;;;;;13.48;5.93;;;3.70;99.90;;;;;;4992181;28;20014;-64
2022/04/16 03:27:03;;;;;;;15.48;6.53;;;3.90;99.90;;;;;;4988372;28;20029;-64
2022/04/16 03:29:28;;;;;;;18.42;6.75;;;4.00;99.90;;;;;;4991809;28;20502;-64
2022/04/16 03:31:54;;;;;;;11.88;5.40;;;4.10;99.90;;;;;;4991516;28;20125;-64
2022/04/16 03:34:20;;;;;;;13.63;6.25;;;4.20;99.90;;;;;;4991506;28;20022;-64
2022/04/16 03:36:45;;;;;;;11.50;5.03;;;4.20;99.90;;;;;;4999000;28;20402;-64
2022/04/16 03:39:11;;;;;;;14.20;4.88;;;4.10;99.90;;;;;;4991438;28;20489;-64
2022/04/16 03:41:38;;;;;;;23.50;6.05;;;4.00;99.90;;;;;;4996748;28;20413;-64
2022/04/16 03:44:04;;;;;;;12.18;5.43;;;3.90;99.90;;;;;;4998324;28;20041;-64
2022/04/16 03:46:30;;;;;;;21.88;7.10;;;3.70;99.90;;;;;;4984719;28;20053;-64
2022/04/16 03:48:56;;;;;;;13.52;6.07;;;3.60;99.90;;;;;;4989662;28;20099;-63
2022/04/16 03:51:21;;;;;;;16.98;5.82;;;3.50;99.90;;;;;;4990910;28;20169;-63
2022/04/16 03:53:47;;;;;;;18.02;6.28;;;3.40;99.90;;;;;;4991496;28;20442;-64
2022/04/16 04:01:40;;;;;;;11.27;5.47;;;3.50;99.90;;;;;;4991252;28;20555;-64
2022/04/16 04:04:06;;;;;;;14.65;5.25;;;3.30;99.90;;;;;;4990816;28;20101;-64
2022/04/16 04:06:32;;;;;;;18.42;4.72;;;3.30;99.90;;;;;;4991468;28;20023;-64
2022/04/16 04:08:58;;;;;;;15.82;7.68;;;3.20;99.90;;;;;;4990942;28;20532;-64
2022/04/16 04:11:23;;;;;;;14.88;7.00;;;3.20;99.90;;;;;;4990900;28;20026;-64
2022/04/16 04:13:49;;;;;;;10.85;5.60;;;3.10;99.90;;;;;;4987183;28;20031;-64
2022/04/16 04:16:15;;;;;;;11.48;5.47;;;3.30;99.90;;;;;;4989187;28;20398;-64
2022/04/16 04:18:40;;;;;;;14.32;7.03;;;3.60;99.90;;;;;;4990594;28;20049;-64
2022/04/16 04:21:06;;;;;;;17.38;7.38;;;3.70;99.90;;;;;;4990484;28;20096;-64
2022/04/16 04:23:31;;;;;;;17.00;6.43;;;3.80;99.90;;;;;;4987092;28;20153;-64
2022/04/16 04:25:57;;;;;;;21.33;8.05;;;3.70;99.90;;;;;;4991166;28;20018;-64
2022/04/16 04:28:23;;;;;;;14.73;6.65;;;3.60;99.90;;;;;;4983346;28;21523;-64
2022/04/16 04:30:48;;;;;;;16.58;6.82;;;3.50;99.90;;;;;;4987934;28;20042;-64
2022/04/16 04:33:14;;;;;;;11.43;5.43;;;3.40;99.90;;;;;;4981487;28;20426;-64
2022/04/16 04:35:39;;;;;;;13.27;5.93;;;3.30;99.90;;;;;;4988087;28;20065;-64
2022/04/16 04:38:05;;;;;;;14.13;5.88;;;3.20;99.90;;;;;;4988214;28;20026;-64
2022/04/16 04:40:31;;;;;;;15.82;6.63;;;3.20;99.90;;;;;;4985165;28;20022;-64
2022/04/16 04:42:56;;;;;;;17.13;6.88;;;3.10;99.90;;;;;;4987810;28;20033;-64
2022/04/16 04:45:22;;;;;;;16.60;6.82;;;3.10;99.90;;;;;;4985972;28;20548;-64
2022/04/16 04:47:47;;;;;;;11.00;5.00;;;3.20;99.90;;;;;;4989190;28;20030;-64
2022/04/16 04:50:13;;;;;;;15.20;5.43;;;3.30;99.90;;;;;;4990283;28;20026;-63
2022/04/16 04:52:40;;;;;;;10.45;4.63;;;3.30;99.90;;;;;;4986412;28;20617;-64
2022/04/16 04:55:09;;;;;;;18.45;6.57;;;3.30;99.90;;;;;;4988367;28;20428;-63
2022/04/16 04:57:34;;;;;;;17.60;6.03;;;3.30;99.90;;;;;;4988896;28;20018;-63
2022/04/16 05:00:00;;;;;;;20.83;7.22;;;3.40;99.90;;;;;;4986927;28;20030;-64
2022/04/16 05:02:25;;;;;;;13.32;5.93;;;3.30;99.90;;;;;;4986964;28;20536;-64
2022/04/16 05:04:51;;;;;;;15.00;5.15;;;3.20;99.90;;;;;;4990601;28;20372;-64
2022/04/16 05:07:17;;;;;;;14.05;5.78;;;3.30;99.90;;;;;;4990251;28;20440;-64
2022/04/16 05:09:42;;;;;;;17.27;4.85;;;3.40;99.90;;;;;;4989398;28;20025;-64
2022/04/16 05:12:08;;;;;;;16.77;7.97;;;3.50;99.90;;;;;;4985235;28;20391;-64
2022/04/16 05:14:34;;;;;;;16.02;6.70;;;3.70;99.90;;;;;;4990672;28;20022;-64
2022/04/16 05:16:59;;;;;;;16.50;7.43;;;3.70;99.90;;;;;;4990396;28;20081;-64
2022/04/16 05:19:25;;;;;;;23.02;8.68;;;3.80;99.90;;;;;;4990011;28;20019;-64
2022/04/16 05:21:51;;;;;;;14.00;7.90;;;4.00;99.90;;;;;;4990787;28;20501;-64
2022/04/16 05:24:16;;;;;;;13.70;5.30;;;4.00;99.90;;;;;;4989670;28;20026;-64
2022/04/16 05:26:42;;;;;;;15.10;5.82;;;4.00;99.90;;;;;;4987050;28;20035;-64
2022/04/16 05:29:08;;;;;;;13.77;6.32;;;3.90;99.90;;;;;;4986367;28;20026;-64
2022/04/16 05:31:34;;;;;;;14.02;6.53;;;3.80;99.90;;;;;;4986414;28;20494;-64
2022/04/16 05:34:18;;;;;;;20.70;6.95;;;3.80;99.90;;;;;;4990584;28;20029;-64
2022/04/16 05:36:46;;;;;;;18.45;6.30;;;3.80;99.90;;;;;;4986905;28;20026;-64
2022/04/16 05:39:12;;;;;;;15.55;7.22;;;4.10;99.90;;;;;;4985966;28;20027;-64
2022/04/16 05:41:38;;;;;;;22.65;7.95;;;4.10;99.90;;;;;;4990615;28;20096;-64
2022/04/16 05:44:04;;;;;;;14.43;6.82;;;4.10;99.90;;;;;;4980694;28;20032;-64
2022/04/16 05:46:30;;;;;;;15.13;5.85;;;4.10;99.90;;;;;;4989545;28;20073;-64
2022/04/16 05:48:56;;;;;;;19.85;6.70;;;4.20;99.90;;;;;;4987781;28;20030;-64
2022/04/16 05:51:23;;;;;;;20.60;6.10;;;4.20;99.90;;;;;;4989427;28;20109;-64
2022/04/16 05:53:49;;;;;;;11.35;5.45;;;4.20;99.90;;;;;;4993100;28;20051;-64
2022/04/16 05:56:16;;;;;;;17.80;7.75;;;4.40;99.90;;;;;;4991707;28;20037;-64
2022/04/16 05:58:42;;;;;;;14.95;6.60;;;4.50;99.90;;;;;;4989661;28;20027;-64
2022/04/16 06:01:09;;;;;;;18.70;7.18;;;4.70;99.90;;;;;;4990448;28;20046;-64
2022/04/16 06:03:36;;;;;;;14.98;7.63;;;4.70;99.90;;;;;;4993758;28;20031;-64
2022/04/16 06:06:03;;;;;;;16.35;7.60;;;4.80;99.90;;;;;;4992003;28;20045;-64
2022/04/16 06:08:29;;;;;;;19.15;7.53;;;4.80;99.90;;;;;;4992193;28;20490;-64
2022/04/16 06:10:54;;;;;;;18.60;7.57;;;4.90;99.90;;;;;;4990542;28;20077;-64
2022/04/16 06:13:20;;;;;;;19.75;7.00;;;5.00;99.90;;;;;;4988910;28;20478;-64
2022/04/16 06:15:46;;;;;;;16.17;7.13;;;5.10;99.90;;;;;;4990950;28;20038;-64
2022/04/16 06:18:12;;;;;;;19.67;8.32;;;5.30;99.90;;;;;;4992561;28;20034;-64
2022/04/16 06:20:38;;;;;;;16.42;7.13;;;5.50;99.90;;;;;;4984965;28;20027;-64
2022/04/16 06:23:05;;;;;;;12.23;5.28;;;5.80;99.90;;;;;;4993288;28;20035;-64
2022/04/16 06:25:31;;;;;;;14.45;7.43;;;6.10;99.90;;;;;;4998490;28;20033;-64
2022/04/16 06:27:57;;;;;;;22.27;7.15;;;6.20;99.90;;;;;;4991704;28;20026;-63
2022/04/16 06:30:23;;;;;;;13.52;5.18;;;6.40;99.90;;;;;;4988801;28;20046;-64
2022/04/16 06:32:48;;;;;;;16.33;6.85;;;6.50;99.90;;;;;;4993133;28;20076;-63
2022/04/16 06:35:14;;;;;;;20.73;7.95;;;6.70;99.90;;;;;;4988258;28;20105;-64
2022/04/16 06:37:41;;;;;;;13.07;5.60;;;6.80;99.90;;;;;;4992920;28;20015;-64
2022/04/16 06:40:08;;;;;;;19.58;6.78;;;6.90;99.90;;;;;;4990186;28;20023;-64
2022/04/16 06:42:34;;;;;;;17.85;7.55;;;7.10;99.90;;;;;;4989518;28;20026;-65
2022/04/16 06:45:00;;;;;;;18.50;7.05;;;7.30;99.90;;;;;;4988029;28;20030;-64
2022/04/16 06:47:29;;;;;;;17.23;7.72;;;7.40;99.90;;;;;;4988610;28;20383;-63
2022/04/16 06:49:55;;;;;;;20.95;7.05;;;7.60;99.90;;;;;;4992540;28;20025;-64
2022/04/16 06:52:20;;;;;;;17.27;5.45;;;7.60;99.90;;;;;;4988850;28;20030;-63
2022/04/16 06:54:46;;;;;;;23.02;8.07;;;7.60;99.90;;;;;;4991625;28;20034;-64
2022/04/16 06:57:12;;;;;;;17.98;6.93;;;7.70;99.90;;;;;;4990238;28;20089;-64
2022/04/16 06:59:38;;;;;;;23.23;9.38;;;7.80;99.90;;;;;;4990942;28;20500;-64
2022/04/16 07:02:08;;;;;;;22.38;8.02;;;7.90;99.90;;;;;;4991878;28;20037;-64
2022/04/16 07:04:34;;;;;;;18.70;6.43;;;7.90;99.90;;;;;;4987280;28;20023;-64
2022/04/16 07:07:00;;;;;;;16.63;6.57;;;8.00;99.90;;;;;;4989859;28;20046;-63
2022/04/16 07:09:26;;;;;;;31.80;9.23;;;8.20;99.90;;;;;;4989732;28;20061;-63
2022/04/16 07:11:51;;;;;;;22.63;8.73;;;8.20;99.90;;;;;;4990773;28;20034;-64
2022/04/16 07:14:17;;;;;;;18.27;7.00;;;8.20;99.90;;;;;;4990719;28;20077;-63
2022/04/16 07:16:43;;;;;;;25.35;11.07;;;8.30;99.90;;;;;;4989093;28;20105;-63
2022/04/16 07:19:09;;;;;;;31.80;9.90;;;8.40;99.90;;;;;;4987845;28;20049;-63
2022/04/16 07:21:35;;;;;;;22.30;7.38;;;8.40;99.90;;;;;;4990859;28;20029;-64
2022/04/16 07:24:00;;;;;;;32.88;10.95;;;8.50;99.90;;;;;;4990724;28;20034;-64
2022/04/16 07:26:26;;;;;;;22.02;6.82;;;8.60;99.90;;;;;;4988227;28;20510;-64
2022/04/16 07:28:52;;;;;;;25.73;8.50;;;8.60;99.90;;;;;;4991358;28;20026;-63
2022/04/16 07:31:17;;;;;;;17.15;6.75;;;8.70;99.90;;;;;;4986007;28;20034;-63
2022/04/16 07:33:43;;;;;;;14.43;6.00;;;8.80;99.90;;;;;;4998587;28;20521;-63
2022/04/16 07:36:09;;;;;;;27.67;7.50;;;9.00;99.90;;;;;;4991898;28;20118;-64
2022/04/16 07:38:34;;;;;;;16.65;6.50;;;9.00;99.90;;;;;;4989161;28;20026;-63
2022/04/16 07:41:02;;;;;;;20.20;7.20;;;9.10;99.90;;;;;;4989557;28;20405;-63
2022/04/16 07:43:29;;;;;;;16.85;5.72;;;9.10;99.90;;;;;;4986536;28;20034;-63
2022/04/16 07:45:54;;;;;;;10.48;4.25;;;9.30;99.90;;;;;;4990471;28;20080;-64
2022/04/16 07:48:20;;;;;;;12.35;4.85;;;9.20;99.90;;;;;;4990084;28;20442;-64
2022/04/16 07:50:45;;;;;;;17.48;6.28;;;9.40;99.90;;;;;;4991658;28;20522;-64
2022/04/16 07:53:11;;;;;;;11.40;5.57;;;9.40;99.90;;;;;;4990535;28;20105;-64
2022/04/16 07:55:37;;;;;;;16.15;6.47;;;9.60;99.90;;;;;;4989692;28;20547;-64
2022/04/16 07:58:03;;;;;;;14.75;6.22;;;9.60;99.90;;;;;;4988018;28;20041;-64
2022/04/16 08:00:29;;;;;;;16.48;5.82;;;9.80;99.90;;;;;;4989610;28;20072;-64
2022/04/16 08:02:54;;;;;;;16.83;6.15;;;9.90;99.90;;;;;;4987849;28;20030;-64
2022/04/16 08:05:20;;;;;;;18.75;7.85;;;10.10;99.90;;;;;;4989932;28;20032;-63
2022/04/16 08:07:46;;;;;;;15.10;5.50;;;10.00;99.90;;;;;;4990288;28;20050;-63
2022/04/16 08:10:12;;;;;;;15.52;5.97;;;9.80;99.90;;;;;;4987635;28;20046;-63
2022/04/16 08:12:38;;;;;;;17.45;6.13;;;10.10;99.90;;;;;;4986773;28;20034;-63
2022/04/16 08:15:07;;;;;;;19.45;6.88;;;10.50;99.90;;;;;;4984696;28;20478;-64
2022/04/16 08:17:33;;;;;;;17.38;6.32;;;10.70;99.90;;;;;;4984088;28;20406;-64
2022/04/16 08:19:59;;;;;;;14.00;4.82;;;10.80;99.90;;;;;;4991423;28;20033;-63
2022/04/16 08:22:28;;;;;;;16.02;5.90;;;11.30;99.90;;;;;;4980207;28;20041;-63
2022/04/16 08:27:39;;;;;;;12.55;4.47;;;10.90;99.90;;;;;;4979629;28;20112;-63
2022/04/16 08:30:07;;;;;;;16.63;5.93;;;12.10;99.90;;;;;;4983987;28;20042;-63
2022/04/16 08:32:36;;;;;;;13.63;5.25;;;12.50;99.90;;;;;;4984751;28;20034;-63
2022/04/16 08:35:06;;;;;;;13.15;3.72;;;11.80;99.90;;;;;;4978433;28;20072;-64
2022/04/16 08:37:32;;;;;;;12.50;5.32;;;12.30;99.90;;;;;;4986109;28;20067;-64
2022/04/16 08:39:58;;;;;;;11.70;4.28;;;12.50;99.90;;;;;;4985876;28;20026;-64
2022/04/16 08:42:23;;;;;;;10.45;3.72;;;13.40;99.90;;;;;;4976832;28;20031;-63
2022/04/16 08:44:50;;;;;;;13.30;3.92;;;14.10;99.90;;;;;;4981710;28;20036;-63
2022/04/16 08:47:17;;;;;;;10.30;4.38;;;13.60;99.90;;;;;;4980315;28;20031;-64
2022/04/16 08:49:44;;;;;;;10.63;4.43;;;12.90;99.90;;;;;;4986141;28;20073;-64
2022/04/16 08:52:11;;;;;;;13.50;4.30;;;12.10;99.90;;;;;;4985963;28;20065;-63
2022/04/16 08:54:39;;;;;;;11.20;3.65;;;12.60;99.90;;;;;;4983951;28;20471;-64
2022/04/16 08:57:05;;;;;;;9.63;4.03;;;14.00;99.90;;;;;;4984647;28;20023;-64
2022/04/16 08:59:31;;;;;;;13.60;3.55;;;13.50;99.90;;;;;;4985083;28;20040;-64
2022/04/16 09:01:58;;;;;;;10.20;3.83;;;14.00;99.90;;;;;;4980823;28;20405;-64
2022/04/16 09:04:27;;;;;;;10.18;2.92;;;13.40;99.90;;;;;;4983136;28;20041;-63
2022/04/16 09:07:11;;;;;;;10.80;3.45;;;14.40;99.90;;;;;;4984760;28;20458;-63
2022/04/16 09:09:36;;;;;;;8.50;2.97;;;15.50;99.90;;;;;;4982317;28;20023;-64
2022/04/16 09:12:02;;;;;;;8.15;2.88;;;14.80;99.90;;;;;;4983555;28;20080;-64
2022/04/16 09:14:37;;;;;;;7.70;2.90;;;16.00;99.90;;;;;;4985136;28;20530;-64
2022/04/16 09:17:09;;;;;;;8.15;2.75;;;16.60;98.50;;;;;;4983826;28;20026;-64
2022/04/16 09:19:34;;;;;;;7.90;2.92;;;16.40;97.20;;;;;;4983551;28;20029;-64
2022/04/16 09:22:00;;;;;;;9.98;4.22;;;16.30;98.70;;;;;;4982750;28;20026;-64
2022/04/16 09:24:26;;;;;;;11.40;3.92;;;14.20;99.90;;;;;;4977758;28;20474;-64
2022/04/16 09:26:53;;;;;;;10.95;3.67;;;14.00;99.90;;;;;;4988228;28;20034;-64
2022/04/16 09:29:19;;;;;;;9.15;3.35;;;14.70;99.90;;;;;;4979742;28;20062;-64
2022/04/16 09:31:48;;;;;;;7.03;2.63;;;14.40;99.90;;;;;;4980673;28;20042;-64
2022/04/16 09:34:23;;;;;;;11.70;3.65;;;15.60;99.90;;;;;;4987067;28;20030;-64
2022/04/16 09:36:50;;;;;;;8.57;2.75;;;15.70;98.10;;;;;;4984777;28;20037;-65
2022/04/16 09:39:16;;;;;;;10.27;3.05;;;15.10;99.90;;;;;;4988031;28;20029;-64
2022/04/16 09:41:44;;;;;;;7.13;2.28;;;14.30;99.90;;;;;;4988239;28;20097;-65
2022/04/16 09:44:27;;;;;;;7.63;2.90;;;15.10;99.90;;;;;;4988063;28;20033;-64
2022/04/16 09:46:55;;;;;;;8.35;2.72;;;16.60;98.50;;;;;;4987863;28;20434;-64
2022/04/16 09:49:21;;;;;;;8.88;3.17;;;16.20;98.10;;;;;;4987470;28;20480;-64
2022/04/16 09:51:48;;;;;;;8.63;3.10;;;14.70;98.20;;;;;;4987686;28;20121;-64
2022/04/16 09:54:15;;;;;;;7.80;3.03;;;16.00;97.10;;;;;;4985775;28;20022;-64
2022/04/16 09:56:44;;;;;;;8.25;2.80;;;15.30;97.40;;;;;;4979658;28;20022;-64
2022/04/16 09:59:12;;;;;;;8.27;2.67;;;16.10;96.60;;;;;;4987733;28;20105;-65
2022/04/16 10:01:39;;;;;;;8.23;2.70;;;17.90;95.10;;;;;;5018019;28;20054;-64
2022/04/16 10:04:06;;;;;;;6.82;2.17;;;15.80;96.00;;;;;;4986655;28;20030;-64
2022/04/16 10:06:32;;;;;;;7.63;2.53;;;16.40;96.50;;;;;;4986254;28;20034;-64
2022/04/16 10:09:00;;;;;;;8.13;2.85;;;17.50;94.10;;;;;;4981298;28;20466;-64
2022/04/16 10:14:22;;;;;;;7.15;2.40;;;17.60;94.90;;;;;;4987513;28;20038;-64
2022/04/16 10:16:58;;;;;;;6.47;2.28;;;;;;;;;;4987640;28;20084;-65
2022/04/16 10:19:23;;;;;;;8.02;2.35;;;20.20;89.10;;;;;;4986843;28;20029;-64
2022/04/16 10:21:54;;;;;;;10.45;2.78;;;20.60;84.00;;;;;;4987754;28;20027;-64
2022/04/16 10:24:27;;;;;;;5.32;1.70;;;18.10;85.60;;;;;;4987469;28;20026;-64
2022/04/16 10:27:04;;;;;;;7.68;2.92;;;17.50;90.10;;;;;;4985613;28;20026;-64
2022/04/16 10:29:37;;;;;;;8.38;2.97;;;17.60;88.80;;;;;;4984407;28;20476;-64
2022/04/16 10:32:15;;;;;;;7.28;2.42;;;16.40;90.50;;;;;;4987981;28;20034;-64
2022/04/16 10:34:40;;;;;;;8.02;2.60;;;18.10;89.20;;;;;;4980132;28;20034;-64
2022/04/16 10:37:07;;;;;;;6.38;2.35;;;18.40;86.40;;;;;;4986750;28;20030;-64
2022/04/16 10:39:35;;;;;;;7.25;2.42;;;17.50;90.10;;;;;;4983781;28;20521;-64
2022/04/16 10:42:04;;;;;;;7.18;2.20;;;17.70;87.50;;;;;;4984986;28;20031;-64
2022/04/16 10:44:42;;;;;;;6.45;2.17;;;18.40;86.10;;;;;;4985340;28;20057;-64
2022/04/16 10:47:12;;;;;;;7.68;2.65;;;19.30;83.10;;;;;;4983046;28;20026;-64
2022/04/16 10:49:41;;;;;;;8.45;2.70;;;17.90;83.90;;;;;;4990733;28;20034;-64
2022/04/16 10:52:18;;;;;;;7.50;2.25;;;16.80;87.10;;;;;;4990852;28;20084;-65
2022/04/16 10:54:43;;;;;;;11.73;2.92;;;17.50;84.40;;;;;;4988380;28;20017;-64
2022/04/16 10:57:10;;;;;;;6.50;2.30;;;17.10;86.20;;;;;;4984967;28;20026;-64
2022/04/16 10:59:41;;;;;;;9.50;2.90;;;17.80;85.70;;;;;;4990275;28;20100;-64
2022/04/16 11:02:26;;;;;;;7.53;2.72;;;16.00;85.70;;;;;;4978098;28;20038;-64
2022/04/16 11:05:00;;;;;;;7.50;2.05;;;16.50;85.40;;;;;;4988387;28;20116;-64
2022/04/16 11:07:27;;;;;;;8.05;1.95;;;15.50;88.80;;;;;;4986621;28;20026;-64
2022/04/16 11:09:55;;;;;;;6.40;1.85;;;16.10;88.90;;;;;;4988162;28;20489;-64
2022/04/16 11:12:21;;;;;;;6.90;2.33;;;17.80;84.40;;;;;;4990156;28;20061;-65
2022/04/16 11:14:51;;;;;;;6.07;2.20;;;17.10;81.20;;;;;;4990665;28;20497;-64
2022/04/16 11:17:17;;;;;;;;;;;16.60;82.70;;;;;;4990678;28;20022;-64
2022/04/16 11:19:44;;;;;;;5.65;1.85;;;17.80;83.60;;;;;;4983727;28;20077;-65
2022/04/16 11:22:11;;;;;;;6.15;2.13;;;17.80;82.60;;;;;;4990598;28;20072;-64
2022/04/16 11:24:37;;;;;;;6.30;2.30;;;19.30;80.60;;;;;;4990506;28;20101;-64
2022/04/16 11:35:22;;;;;;;5.00;1.75;;;18.10;78.60;;;;;;4982866;28;20534;-64
2022/04/16 11:37:57;;;;;;;6.10;1.92;;;18.20;77.60;;;;;;4980444;28;20042;-64
2022/04/16 11:40:22;;;;;;;5.63;1.80;;;18.90;77.00;;;;;;4987005;28;20053;-64
2022/04/16 11:42:49;;;;;;;5.93;1.60;;;19.80;76.90;;;;;;4989152;28;20060;-65
2022/04/16 11:45:15;;;;;;;5.20;1.60;;;21.00;70.50;;;;;;4986237;28;20058;-65
2022/04/16 11:47:41;;;;;;;8.25;1.90;;;20.40;72.40;;;;;;4987360;28;20493;-65
2022/04/16 11:50:09;;;;;;;5.32;1.48;;;20.80;69.10;;;;;;4986360;28;20034;-65
2022/04/16 11:52:36;;;;;;;6.55;2.22;;;21.60;68.70;;;;;;4987229;28;20680;-65
2022/04/16 11:55:19;;;;;;;5.20;1.90;;;18.80;67.50;;;;;;4990172;28;20026;-65
2022/04/16 11:57:52;;;;;;;5.22;1.75;;;18.50;74.70;;;;;;4984597;28;20427;-65
2022/04/16 12:00:19;;;;;;;4.03;1.42;;;20.00;68.00;;;;;;4988856;28;20541;-65
2022/04/16 12:02:48;;;;;;;5.20;1.70;;;18.80;69.00;;;;;;4988884;28;20497;-65
2022/04/16 12:05:16;;;;;;;6.03;1.60;;;18.70;68.40;;;;;;4990168;28;20026;-65
2022/04/16 12:07:44;;;;;;;4.82;1.55;;;19.00;71.30;;;;;;4987725;28;20026;-65
2022/04/16 12:10:13;;;;;;;3.85;1.00;;;19.40;65.20;;;;;;4983556;28;20486;-64
2022/04/16 12:12:56;;;;;;;3.92;1.23;;;19.80;68.30;;;;;;4987180;28;20030;-64
2022/04/16 12:15:30;;;;;;;4.45;1.40;;;19.30;63.60;;;;;;4986727;28;20034;-64
2022/04/16 12:18:07;;;;;;;3.05;1.15;;;18.40;64.80;;;;;;4987462;28;20033;-64
2022/04/16 12:20:33;;;;;;;3.88;1.20;;;18.50;67.80;;;;;;4986810;28;20105;-64
2022/04/16 12:23:00;;;;;;;3.38;1.10;;;17.50;65.30;;;;;;4987860;28;20102;-64
2022/04/16 12:25:26;;;;;;;11.10;1.45;;;19.20;67.00;;;;;;4987668;28;20015;-64
2022/04/16 12:27:54;;;;;;;6.22;1.45;;;20.70;61.00;;;;;;4985314;28;20033;-64
2022/04/16 12:30:24;;;;;;;3.03;1.00;;;20.40;61.50;;;;;;4987878;28;20109;-65
2022/04/16 12:33:05;;;;;;;2.47;1.15;;;20.50;61.80;;;;;;4983840;28;20129;-65
2022/04/16 12:35:33;;;;;;;2.90;1.05;;;19.60;63.70;;;;;;4985907;28;20030;-64
2022/04/16 12:37:59;;;;;;;4.15;1.20;;;20.80;61.30;;;;;;4987346;28;20038;-64
2022/04/16 12:40:27;;;;;;;3.97;1.35;;;18.70;58.90;;;;;;4987336;28;20092;-64
2022/04/16 12:42:54;;;;;;;4.05;1.38;;;18.20;60.60;;;;;;4987618;28;20035;-65
2022/04/16 12:45:20;;;;;;;3.45;1.20;;;18.40;60.60;;;;;;4987622;28;20030;-65
2022/04/16 12:47:47;;;;;;;2.63;1.00;;;19.20;61.20;;;;;;4985808;28;20041;-65
2022/04/16 12:50:15;;;;;;;3.53;1.17;;;19.20;62.00;;;;;;4987975;28;20034;-64
2022/04/16 12:52:42;;;;;;;2.30;0.95;;;20.90;58.50;;;;;;4984779;28;20057;-65
2022/04/16 12:55:09;;;;;;;3.45;1.38;;;19.90;58.60;;;;;;4987263;28;20554;-64
2022/04/16 12:57:34;;;;;;;3.75;1.20;;;18.50;59.40;;;;;;4984828;28;20475;-64
2022/04/16 13:00:00;;;;;;;2.60;0.80;;;19.30;58.90;;;;;;4990253;28;20085;-64
2022/04/16 13:02:26;;;;;;;2.75;1.10;;;18.90;60.50;;;;;;4991223;28;20026;-64
2022/04/16 13:04:53;;;;;;;3.08;1.00;;;19.80;58.30;;;;;;4991435;28;20053;-64
2022/04/16 13:07:18;;;;;;;2.30;0.93;;;19.90;57.30;;;;;;4989916;28;20053;-65
2022/04/16 13:09:44;;;;;;;3.22;1.10;;;21.60;56.80;;;;;;4987387;28;20062;-65
2022/04/16 13:12:10;;;;;;;2.80;1.02;;;22.90;53.60;;;;;;4990146;28;20077;-64